sensor_id;sensor_type;location;lat;lon;timestamp;pressure;altitude;pressure_sealevel;temperature;humidity
64230;BME280;50547;49.498;0.092;2023-06-26T00:01:29;1015.09;;;18.35;82.68
64230;BME280;50547;49.498;0.092;2023-06-26T00:03:59;1015.05;;;18.45;82.07
64230;BME280;50547;49.498;0.092;2023-06-26T00:06:28;1015.07;;;18.54;82.32
64230;BME280;50547;49.498;0.092;2023-06-26T00:08:57;1015.13;;;18.42;82.34
64230;BME280;50547;49.498;0.092;2023-06-26T00:11:26;1015.17;;;18.48;82.58
64230;BME280;50547;49.498;0.092;2023-06-26T00:13:55;1015.19;;;18.44;82.79
64230;BME280;50547;49.498;0.092;2023-06-26T00:16:24;1015.15;;;18.36;82.54
64230;BME280;50547;49.498;0.092;2023-06-26T00:18:54;1015.27;;;18.49;82.60
64230;BME280;50547;49.498;0.092;2023-06-26T00:21:22;1015.21;;;18.39;82.60
64230;BME280;50547;49.498;0.092;2023-06-26T00:23:51;1015.11;;;18.41;82.76
64230;BME280;50547;49.498;0.092;2023-06-26T00:26:20;1015.17;;;18.47;82.06
64230;BME280;50547;49.498;0.092;2023-06-26T00:28:50;1015.13;;;18.43;82.30
64230;BME280;50547;49.498;0.092;2023-06-26T00:31:18;1015.25;;;18.42;82.13
64230;BME280;50547;49.498;0.092;2023-06-26T00:33:47;1015.21;;;18.62;82.10
64230;BME280;50547;49.498;0.092;2023-06-26T00:36:16;1015.19;;;18.62;82.31
64230;BME280;50547;49.498;0.092;2023-06-26T00:38:45;1015.19;;;18.56;82.07
64230;BME280;50547;49.498;0.092;2023-06-26T00:41:25;1015.19;;;18.51;81.94
64230;BME280;50547;49.498;0.092;2023-06-26T00:43:54;1015.27;;;18.51;82.05
64230;BME280;50547;49.498;0.092;2023-06-26T00:46:23;1015.21;;;18.56;82.57
64230;BME280;50547;49.498;0.092;2023-06-26T00:48:52;1015.15;;;18.48;83.12
64230;BME280;50547;49.498;0.092;2023-06-26T00:51:22;1015.15;;;18.48;83.03
64230;BME280;50547;49.498;0.092;2023-06-26T00:53:51;1015.09;;;18.42;82.64
64230;BME280;50547;49.498;0.092;2023-06-26T00:56:21;1015.15;;;18.41;82.34
64230;BME280;50547;49.498;0.092;2023-06-26T00:58:50;1015.17;;;18.38;82.49
64230;BME280;50547;49.498;0.092;2023-06-26T01:01:19;1015.19;;;18.32;82.22
64230;BME280;50547;49.498;0.092;2023-06-26T01:03:49;1015.31;;;18.46;82.10
64230;BME280;50547;49.498;0.092;2023-06-26T01:06:20;1015.17;;;18.38;82.31
64230;BME280;50547;49.498;0.092;2023-06-26T01:08:51;1015.19;;;18.43;82.82
64230;BME280;50547;49.498;0.092;2023-06-26T01:11:20;1015.19;;;18.40;83.13
64230;BME280;50547;49.498;0.092;2023-06-26T01:13:50;1015.15;;;18.37;83.56
64230;BME280;50547;49.498;0.092;2023-06-26T01:16:20;1015.21;;;18.30;83.53
64230;BME280;50547;49.498;0.092;2023-06-26T01:18:50;1015.17;;;18.40;83.45
64230;BME280;50547;49.498;0.092;2023-06-26T01:21:19;1015.15;;;18.30;84.14
64230;BME280;50547;49.498;0.092;2023-06-26T01:23:57;1015.15;;;18.30;83.90
64230;BME280;50547;49.498;0.092;2023-06-26T01:26:29;1015.17;;;18.30;84.05
64230;BME280;50547;49.498;0.092;2023-06-26T01:28:59;1015.34;;;18.31;83.36
64230;BME280;50547;49.498;0.092;2023-06-26T01:31:30;1015.31;;;18.34;83.34
64230;BME280;50547;49.498;0.092;2023-06-26T01:34:00;1015.44;;;18.34;83.86
64230;BME280;50547;49.498;0.092;2023-06-26T01:36:29;1015.25;;;18.25;84.01
64230;BME280;50547;49.498;0.092;2023-06-26T01:38:58;1015.25;;;18.32;84.04
64230;BME280;50547;49.498;0.092;2023-06-26T01:41:27;1015.34;;;18.16;84.26
64230;BME280;50547;49.498;0.092;2023-06-26T01:44:05;1015.54;;;18.30;84.32
64230;BME280;50547;49.498;0.092;2023-06-26T01:46:40;1015.46;;;18.30;84.30
64230;BME280;50547;49.498;0.092;2023-06-26T01:49:17;1015.48;;;18.11;84.31
64230;BME280;50547;49.498;0.092;2023-06-26T01:51:54;1015.52;;;18.14;84.62
64230;BME280;50547;49.498;0.092;2023-06-26T01:54:25;1015.48;;;18.11;84.67
64230;BME280;50547;49.498;0.092;2023-06-26T01:57:00;1015.58;;;18.03;84.00
64230;BME280;50547;49.498;0.092;2023-06-26T01:59:32;1015.54;;;18.16;84.03
64230;BME280;50547;49.498;0.092;2023-06-26T02:02:01;1015.50;;;18.01;84.20
64230;BME280;50547;49.498;0.092;2023-06-26T02:04:30;1015.62;;;18.10;84.65
64230;BME280;50547;49.498;0.092;2023-06-26T02:06:59;1015.58;;;18.14;84.58
64230;BME280;50547;49.498;0.092;2023-06-26T02:09:28;1015.58;;;18.01;84.83
64230;BME280;50547;49.498;0.092;2023-06-26T02:11:57;1015.64;;;18.00;84.72
64230;BME280;50547;49.498;0.092;2023-06-26T02:14:26;1015.64;;;17.90;84.60
64230;BME280;50547;49.498;0.092;2023-06-26T02:16:55;1015.60;;;18.00;83.91
64230;BME280;50547;49.498;0.092;2023-06-26T02:19:25;1015.88;;;17.95;84.16
64230;BME280;50547;49.498;0.092;2023-06-26T02:21:54;1015.68;;;17.91;83.77
64230;BME280;50547;49.498;0.092;2023-06-26T02:24:23;1015.64;;;17.93;83.94
64230;BME280;50547;49.498;0.092;2023-06-26T02:26:52;1015.78;;;18.06;84.18
64230;BME280;50547;49.498;0.092;2023-06-26T02:29:21;1015.86;;;18.10;84.28
64230;BME280;50547;49.498;0.092;2023-06-26T02:31:49;1015.52;;;17.98;84.14
64230;BME280;50547;49.498;0.092;2023-06-26T02:34:18;1015.80;;;17.96;84.28
64230;BME280;50547;49.498;0.092;2023-06-26T02:36:47;1015.68;;;17.88;84.15
64230;BME280;50547;49.498;0.092;2023-06-26T02:39:16;1015.78;;;17.85;83.98
64230;BME280;50547;49.498;0.092;2023-06-26T02:41:45;1015.84;;;17.88;83.72
64230;BME280;50547;49.498;0.092;2023-06-26T02:44:14;1015.68;;;17.90;83.79
64230;BME280;50547;49.498;0.092;2023-06-26T02:46:43;1015.70;;;17.82;84.05
64230;BME280;50547;49.498;0.092;2023-06-26T02:49:12;1015.98;;;17.84;83.61
64230;BME280;50547;49.498;0.092;2023-06-26T02:51:41;1015.84;;;17.84;83.38
64230;BME280;50547;49.498;0.092;2023-06-26T02:54:10;1015.84;;;17.86;83.42
64230;BME280;50547;49.498;0.092;2023-06-26T02:56:39;1015.82;;;17.75;83.39
64230;BME280;50547;49.498;0.092;2023-06-26T02:59:08;1015.66;;;17.69;83.40
64230;BME280;50547;49.498;0.092;2023-06-26T03:01:37;1015.84;;;17.77;82.58
64230;BME280;50547;49.498;0.092;2023-06-26T03:04:06;1015.70;;;17.79;82.95
64230;BME280;50547;49.498;0.092;2023-06-26T03:06:35;1015.88;;;17.76;82.85
64230;BME280;50547;49.498;0.092;2023-06-26T03:09:04;1015.98;;;17.86;83.03
64230;BME280;50547;49.498;0.092;2023-06-26T03:11:33;1015.86;;;17.80;83.43
64230;BME280;50547;49.498;0.092;2023-06-26T03:14:02;1015.84;;;17.76;82.98
64230;BME280;50547;49.498;0.092;2023-06-26T03:16:31;1015.88;;;17.83;82.82
64230;BME280;50547;49.498;0.092;2023-06-26T03:19:00;1015.88;;;17.80;82.49
64230;BME280;50547;49.498;0.092;2023-06-26T03:21:29;1015.90;;;17.76;82.77
64230;BME280;50547;49.498;0.092;2023-06-26T03:23:58;1015.94;;;17.82;82.66
64230;BME280;50547;49.498;0.092;2023-06-26T03:26:27;1016.04;;;17.85;82.89
64230;BME280;50547;49.498;0.092;2023-06-26T03:28:56;1016.02;;;17.67;82.47
64230;BME280;50547;49.498;0.092;2023-06-26T03:31:25;1015.90;;;17.71;82.69
64230;BME280;50547;49.498;0.092;2023-06-26T03:33:54;1016.02;;;17.73;82.14
64230;BME280;50547;49.498;0.092;2023-06-26T03:36:23;1016.10;;;17.81;82.46
64230;BME280;50547;49.498;0.092;2023-06-26T03:38:52;1016.04;;;17.60;82.38
64230;BME280;50547;49.498;0.092;2023-06-26T03:41:21;1016.23;;;17.70;82.46
64230;BME280;50547;49.498;0.092;2023-06-26T03:43:50;1016.16;;;17.75;82.42
64230;BME280;50547;49.498;0.092;2023-06-26T03:46:19;1016.14;;;17.67;82.57
64230;BME280;50547;49.498;0.092;2023-06-26T03:48:49;1016.19;;;17.69;82.21
64230;BME280;50547;49.498;0.092;2023-06-26T03:51:17;1016.21;;;17.73;82.52
64230;BME280;50547;49.498;0.092;2023-06-26T03:53:47;1016.21;;;17.70;82.02
64230;BME280;50547;49.498;0.092;2023-06-26T03:56:16;1016.19;;;17.73;82.56
64230;BME280;50547;49.498;0.092;2023-06-26T03:58:45;1016.21;;;17.67;82.03
64230;BME280;50547;49.498;0.092;2023-06-26T04:01:13;1016.19;;;17.60;81.82
64230;BME280;50547;49.498;0.092;2023-06-26T04:03:42;1016.37;;;17.76;82.14
64230;BME280;50547;49.498;0.092;2023-06-26T04:06:11;1016.33;;;17.60;82.25
64230;BME280;50547;49.498;0.092;2023-06-26T04:08:40;1016.35;;;17.62;82.19
64230;BME280;50547;49.498;0.092;2023-06-26T04:11:09;1016.39;;;17.62;82.29
64230;BME280;50547;49.498;0.092;2023-06-26T04:13:38;1016.53;;;17.67;82.35
64230;BME280;50547;49.498;0.092;2023-06-26T04:16:07;1016.43;;;17.71;82.18
64230;BME280;50547;49.498;0.092;2023-06-26T04:18:36;1016.45;;;17.70;82.13
64230;BME280;50547;49.498;0.092;2023-06-26T04:21:09;1016.53;;;17.73;82.47
64230;BME280;50547;49.498;0.092;2023-06-26T04:23:40;1016.47;;;17.66;82.59
64230;BME280;50547;49.498;0.092;2023-06-26T04:26:09;1016.49;;;17.57;82.57
64230;BME280;50547;49.498;0.092;2023-06-26T04:28:38;1016.57;;;17.54;82.56
64230;BME280;50547;49.498;0.092;2023-06-26T04:31:07;1016.53;;;17.63;82.39
64230;BME280;50547;49.498;0.092;2023-06-26T04:33:36;1016.55;;;17.66;82.73
64230;BME280;50547;49.498;0.092;2023-06-26T04:36:06;1016.55;;;17.55;82.75
64230;BME280;50547;49.498;0.092;2023-06-26T04:38:35;1016.55;;;17.56;82.92
64230;BME280;50547;49.498;0.092;2023-06-26T04:41:04;1016.49;;;17.67;82.38
64230;BME280;50547;49.498;0.092;2023-06-26T04:43:33;1016.31;;;17.49;82.20
64230;BME280;50547;49.498;0.092;2023-06-26T04:46:02;1016.53;;;17.62;81.88
64230;BME280;50547;49.498;0.092;2023-06-26T04:48:32;1016.59;;;17.64;81.64
64230;BME280;50547;49.498;0.092;2023-06-26T04:51:01;1016.66;;;17.63;82.04
64230;BME280;50547;49.498;0.092;2023-06-26T04:53:30;1016.68;;;17.63;81.77
64230;BME280;50547;49.498;0.092;2023-06-26T04:55:59;1016.80;;;17.80;81.76
64230;BME280;50547;49.498;0.092;2023-06-26T04:58:27;1016.84;;;17.66;81.54
64230;BME280;50547;49.498;0.092;2023-06-26T05:00:57;1016.88;;;17.65;81.46
64230;BME280;50547;49.498;0.092;2023-06-26T05:03:26;1016.92;;;17.65;81.10
64230;BME280;50547;49.498;0.092;2023-06-26T05:05:55;1016.94;;;17.71;81.65
64230;BME280;50547;49.498;0.092;2023-06-26T05:08:26;1016.92;;;17.65;81.29
64230;BME280;50547;49.498;0.092;2023-06-26T05:10:55;1016.88;;;17.78;80.66
64230;BME280;50547;49.498;0.092;2023-06-26T05:13:24;1016.92;;;17.82;81.06
64230;BME280;50547;49.498;0.092;2023-06-26T05:15:53;1016.96;;;17.72;80.57
64230;BME280;50547;49.498;0.092;2023-06-26T05:18:22;1016.88;;;17.73;80.71
64230;BME280;50547;49.498;0.092;2023-06-26T05:20:52;1016.90;;;17.88;80.00
64230;BME280;50547;49.498;0.092;2023-06-26T05:23:22;1016.92;;;17.96;80.01
64230;BME280;50547;49.498;0.092;2023-06-26T05:25:54;1016.84;;;18.01;79.94
64230;BME280;50547;49.498;0.092;2023-06-26T05:28:24;1016.90;;;18.06;79.56
64230;BME280;50547;49.498;0.092;2023-06-26T05:30:54;1016.98;;;18.08;79.38
64230;BME280;50547;49.498;0.092;2023-06-26T05:33:25;1017.00;;;18.04;79.73
64230;BME280;50547;49.498;0.092;2023-06-26T05:35:55;1017.15;;;18.12;79.43
64230;BME280;50547;49.498;0.092;2023-06-26T05:38:25;1017.10;;;18.05;79.70
64230;BME280;50547;49.498;0.092;2023-06-26T05:40:55;1017.08;;;18.01;79.96
64230;BME280;50547;49.498;0.092;2023-06-26T05:43:24;1017.15;;;18.10;79.93
64230;BME280;50547;49.498;0.092;2023-06-26T05:45:53;1017.08;;;17.95;80.72
64230;BME280;50547;49.498;0.092;2023-06-26T05:48:22;1017.04;;;17.88;80.39
64230;BME280;50547;49.498;0.092;2023-06-26T05:50:52;1017.00;;;18.00;79.42
64230;BME280;50547;49.498;0.092;2023-06-26T05:53:21;1017.06;;;17.90;79.28
64230;BME280;50547;49.498;0.092;2023-06-26T05:55:51;1017.08;;;17.99;79.23
64230;BME280;50547;49.498;0.092;2023-06-26T05:58:20;1017.10;;;18.01;79.10
64230;BME280;50547;49.498;0.092;2023-06-26T06:00:50;1017.11;;;18.07;78.94
64230;BME280;50547;49.498;0.092;2023-06-26T06:03:19;1017.13;;;18.09;79.19
64230;BME280;50547;49.498;0.092;2023-06-26T06:05:47;1017.19;;;18.11;79.26
64230;BME280;50547;49.498;0.092;2023-06-26T06:08:16;1017.17;;;17.88;80.09
64230;BME280;50547;49.498;0.092;2023-06-26T06:10:46;1017.15;;;17.91;80.12
64230;BME280;50547;49.498;0.092;2023-06-26T06:13:14;1017.19;;;18.04;79.45
64230;BME280;50547;49.498;0.092;2023-06-26T06:15:43;1017.21;;;18.14;78.84
64230;BME280;50547;49.498;0.092;2023-06-26T06:18:12;1017.27;;;18.11;78.13
64230;BME280;50547;49.498;0.092;2023-06-26T06:20:41;1017.21;;;18.37;78.32
64230;BME280;50547;49.498;0.092;2023-06-26T06:23:10;1017.29;;;18.28;78.44
64230;BME280;50547;49.498;0.092;2023-06-26T06:25:44;1017.17;;;18.22;78.27
64230;BME280;50547;49.498;0.092;2023-06-26T06:28:18;1017.43;;;18.25;77.91
64230;BME280;50547;49.498;0.092;2023-06-26T06:30:47;1017.35;;;18.27;78.04
64230;BME280;50547;49.498;0.092;2023-06-26T06:33:16;1017.43;;;18.37;78.13
64230;BME280;50547;49.498;0.092;2023-06-26T06:35:45;1017.49;;;18.27;77.44
64230;BME280;50547;49.498;0.092;2023-06-26T06:38:14;1017.47;;;18.19;77.75
64230;BME280;50547;49.498;0.092;2023-06-26T06:40:43;1017.47;;;18.38;77.11
64230;BME280;50547;49.498;0.092;2023-06-26T06:43:12;1017.49;;;18.41;76.61
64230;BME280;50547;49.498;0.092;2023-06-26T06:45:41;1017.58;;;18.62;76.50
64230;BME280;50547;49.498;0.092;2023-06-26T06:48:11;1017.60;;;18.29;76.73
64230;BME280;50547;49.498;0.092;2023-06-26T06:50:39;1017.60;;;18.44;76.64
64230;BME280;50547;49.498;0.092;2023-06-26T06:53:08;1017.60;;;18.42;76.01
64230;BME280;50547;49.498;0.092;2023-06-26T06:55:37;1017.58;;;18.44;76.46
64230;BME280;50547;49.498;0.092;2023-06-26T06:58:06;1017.74;;;18.42;76.44
64230;BME280;50547;49.498;0.092;2023-06-26T07:00:35;1017.76;;;18.43;76.75
64230;BME280;50547;49.498;0.092;2023-06-26T07:03:04;1017.80;;;18.28;77.10
64230;BME280;50547;49.498;0.092;2023-06-26T07:05:33;1017.72;;;18.17;77.11
64230;BME280;50547;49.498;0.092;2023-06-26T07:08:03;1017.74;;;18.31;75.85
64230;BME280;50547;49.498;0.092;2023-06-26T07:10:32;1017.90;;;18.33;75.66
64230;BME280;50547;49.498;0.092;2023-06-26T07:13:01;1017.96;;;18.56;75.76
64230;BME280;50547;49.498;0.092;2023-06-26T07:15:30;1017.94;;;18.36;75.31
64230;BME280;50547;49.498;0.092;2023-06-26T07:17:59;1018.01;;;18.44;75.47
64230;BME280;50547;49.498;0.092;2023-06-26T07:20:29;1018.03;;;18.57;75.81
64230;BME280;50547;49.498;0.092;2023-06-26T07:22:58;1018.09;;;18.56;75.53
64230;BME280;50547;49.498;0.092;2023-06-26T07:25:27;1018.17;;;18.67;74.64
64230;BME280;50547;49.498;0.092;2023-06-26T07:27:56;1018.09;;;18.71;74.07
64230;BME280;50547;49.498;0.092;2023-06-26T07:30:25;1018.09;;;18.61;74.41
64230;BME280;50547;49.498;0.092;2023-06-26T07:32:54;1018.21;;;18.48;74.63
64230;BME280;50547;49.498;0.092;2023-06-26T07:35:23;1018.27;;;18.52;74.37
64230;BME280;50547;49.498;0.092;2023-06-26T07:37:52;1018.21;;;18.58;73.96
64230;BME280;50547;49.498;0.092;2023-06-26T07:40:21;1018.17;;;18.83;72.84
64230;BME280;50547;49.498;0.092;2023-06-26T07:42:50;1018.25;;;18.79;72.63
64230;BME280;50547;49.498;0.092;2023-06-26T07:45:19;1018.45;;;18.87;72.27
64230;BME280;50547;49.498;0.092;2023-06-26T07:47:48;1018.21;;;18.92;72.47
64230;BME280;50547;49.498;0.092;2023-06-26T07:50:17;1018.23;;;19.26;71.94
64230;BME280;50547;49.498;0.092;2023-06-26T07:52:46;1018.36;;;19.30;71.51
64230;BME280;50547;49.498;0.092;2023-06-26T07:55:15;1018.45;;;19.16;71.82
64230;BME280;50547;49.498;0.092;2023-06-26T07:57:44;1018.36;;;19.23;72.27
64230;BME280;50547;49.498;0.092;2023-06-26T08:00:13;1018.21;;;19.09;72.03
64230;BME280;50547;49.498;0.092;2023-06-26T08:02:42;1018.23;;;19.24;71.64
64230;BME280;50547;49.498;0.092;2023-06-26T08:05:11;1018.25;;;19.16;71.50
64230;BME280;50547;49.498;0.092;2023-06-26T08:07:40;1018.23;;;19.20;71.48
64230;BME280;50547;49.498;0.092;2023-06-26T08:10:09;1018.38;;;19.27;70.68
64230;BME280;50547;49.498;0.092;2023-06-26T08:12:38;1018.47;;;19.15;71.46
64230;BME280;50547;49.498;0.092;2023-06-26T08:15:08;1018.47;;;19.17;71.95
64230;BME280;50547;49.498;0.092;2023-06-26T08:17:38;1018.51;;;19.47;71.38
64230;BME280;50547;49.498;0.092;2023-06-26T08:20:08;1018.59;;;19.59;69.10
64230;BME280;50547;49.498;0.092;2023-06-26T08:22:37;1018.53;;;19.52;69.53
64230;BME280;50547;49.498;0.092;2023-06-26T08:25:06;1018.67;;;19.85;68.85
64230;BME280;50547;49.498;0.092;2023-06-26T08:27:35;1018.59;;;19.66;69.11
64230;BME280;50547;49.498;0.092;2023-06-26T08:30:05;1018.73;;;19.52;68.86
64230;BME280;50547;49.498;0.092;2023-06-26T08:32:34;1018.67;;;19.37;69.33
64230;BME280;50547;49.498;0.092;2023-06-26T08:35:04;1018.67;;;19.56;68.97
64230;BME280;50547;49.498;0.092;2023-06-26T08:37:33;1018.73;;;19.72;68.14
64230;BME280;50547;49.498;0.092;2023-06-26T08:40:03;1018.63;;;19.75;68.87
64230;BME280;50547;49.498;0.092;2023-06-26T08:42:32;1018.71;;;19.80;68.43
64230;BME280;50547;49.498;0.092;2023-06-26T08:45:01;1018.69;;;19.80;68.96
64230;BME280;50547;49.498;0.092;2023-06-26T08:47:34;1018.79;;;19.80;68.76
64230;BME280;50547;49.498;0.092;2023-06-26T08:50:07;1018.69;;;19.94;68.15
64230;BME280;50547;49.498;0.092;2023-06-26T08:52:40;1018.73;;;19.88;67.29
64230;BME280;50547;49.498;0.092;2023-06-26T08:55:12;1018.83;;;19.91;68.58
64230;BME280;50547;49.498;0.092;2023-06-26T08:57:44;1018.89;;;20.01;68.93
64230;BME280;50547;49.498;0.092;2023-06-26T09:00:14;1018.87;;;19.85;69.36
64230;BME280;50547;49.498;0.092;2023-06-26T09:02:44;1018.83;;;19.97;68.22
64230;BME280;50547;49.498;0.092;2023-06-26T09:05:13;1018.94;;;19.94;69.23
64230;BME280;50547;49.498;0.092;2023-06-26T09:07:43;1018.90;;;19.87;68.38
64230;BME280;50547;49.498;0.092;2023-06-26T09:10:12;1018.94;;;19.95;68.62
64230;BME280;50547;49.498;0.092;2023-06-26T09:12:41;1018.90;;;20.20;67.11
64230;BME280;50547;49.498;0.092;2023-06-26T09:15:15;1018.98;;;20.12;67.47
64230;BME280;50547;49.498;0.092;2023-06-26T09:17:44;1018.96;;;19.95;69.45
64230;BME280;50547;49.498;0.092;2023-06-26T09:20:13;1018.98;;;19.96;69.70
64230;BME280;50547;49.498;0.092;2023-06-26T09:22:47;1018.98;;;20.14;68.54
64230;BME280;50547;49.498;0.092;2023-06-26T09:25:17;1019.00;;;20.11;68.98
64230;BME280;50547;49.498;0.092;2023-06-26T09:27:47;1018.96;;;19.99;69.67
64230;BME280;50547;49.498;0.092;2023-06-26T09:30:17;1018.94;;;19.86;70.84
64230;BME280;50547;49.498;0.092;2023-06-26T09:32:46;1018.90;;;19.74;70.98
64230;BME280;50547;49.498;0.092;2023-06-26T09:35:16;1018.94;;;19.50;72.36
64230;BME280;50547;49.498;0.092;2023-06-26T09:37:45;1019.00;;;19.70;71.39
64230;BME280;50547;49.498;0.092;2023-06-26T09:40:14;1019.06;;;19.87;70.97
64230;BME280;50547;49.498;0.092;2023-06-26T09:42:43;1019.02;;;19.94;69.80
64230;BME280;50547;49.498;0.092;2023-06-26T09:45:18;1019.16;;;19.89;72.01
64230;BME280;50547;49.498;0.092;2023-06-26T09:47:47;1019.24;;;20.02;69.84
64230;BME280;50547;49.498;0.092;2023-06-26T09:50:24;1019.18;;;19.91;71.04
64230;BME280;50547;49.498;0.092;2023-06-26T09:52:53;1019.22;;;20.58;68.76
64230;BME280;50547;49.498;0.092;2023-06-26T09:55:22;1019.26;;;20.58;68.65
64230;BME280;50547;49.498;0.092;2023-06-26T09:57:51;1019.28;;;20.89;67.11
64230;BME280;50547;49.498;0.092;2023-06-26T10:00:21;1019.26;;;20.75;68.28
64230;BME280;50547;49.498;0.092;2023-06-26T10:02:50;1019.32;;;20.54;68.92
64230;BME280;50547;49.498;0.092;2023-06-26T10:05:21;1019.32;;;20.63;68.50
64230;BME280;50547;49.498;0.092;2023-06-26T10:07:51;1019.36;;;20.68;69.26
64230;BME280;50547;49.498;0.092;2023-06-26T10:10:22;1019.16;;;20.59;68.63
64230;BME280;50547;49.498;0.092;2023-06-26T10:12:57;1019.32;;;20.62;68.35
64230;BME280;50547;49.498;0.092;2023-06-26T10:15:29;1019.34;;;20.91;67.66
64230;BME280;50547;49.498;0.092;2023-06-26T10:17:59;1019.34;;;20.33;69.60
64230;BME280;50547;49.498;0.092;2023-06-26T10:20:28;1019.32;;;20.25;69.95
64230;BME280;50547;49.498;0.092;2023-06-26T10:23:00;1019.32;;;20.82;68.15
64230;BME280;50547;49.498;0.092;2023-06-26T10:25:31;1019.41;;;20.91;66.64
64230;BME280;50547;49.498;0.092;2023-06-26T10:28:02;1019.37;;;21.02;67.49
64230;BME280;50547;49.498;0.092;2023-06-26T10:30:34;1019.34;;;20.87;67.64
64230;BME280;50547;49.498;0.092;2023-06-26T10:33:05;1019.47;;;21.14;66.98
64230;BME280;50547;49.498;0.092;2023-06-26T10:35:42;1019.39;;;21.28;66.68
64230;BME280;50547;49.498;0.092;2023-06-26T10:38:08;1019.49;;;21.07;66.80
64230;BME280;50547;49.498;0.092;2023-06-26T10:40:43;1019.49;;;21.07;67.99
64230;BME280;50547;49.498;0.092;2023-06-26T10:43:13;1019.47;;;21.18;66.85
64230;BME280;50547;49.498;0.092;2023-06-26T10:45:45;1019.51;;;20.98;67.69
64230;BME280;50547;49.498;0.092;2023-06-26T10:48:15;1019.59;;;21.22;66.23
64230;BME280;50547;49.498;0.092;2023-06-26T10:50:47;1019.57;;;20.86;67.85
64230;BME280;50547;49.498;0.092;2023-06-26T10:53:21;1019.47;;;21.05;67.33
64230;BME280;50547;49.498;0.092;2023-06-26T10:55:55;1019.47;;;20.90;67.11
64230;BME280;50547;49.498;0.092;2023-06-26T10:58:30;1019.49;;;20.78;67.32
64230;BME280;50547;49.498;0.092;2023-06-26T11:01:17;1019.59;;;20.88;67.37
64230;BME280;50547;49.498;0.092;2023-06-26T11:03:48;1019.45;;;20.99;65.79
64230;BME280;50547;49.498;0.092;2023-06-26T11:06:18;1019.51;;;20.80;66.97
64230;BME280;50547;49.498;0.092;2023-06-26T11:08:48;1019.61;;;21.10;66.62
64230;BME280;50547;49.498;0.092;2023-06-26T11:11:15;1019.61;;;21.25;64.86
64230;BME280;50547;49.498;0.092;2023-06-26T11:13:45;1019.63;;;21.07;65.63
64230;BME280;50547;49.498;0.092;2023-06-26T11:16:15;1019.65;;;21.37;64.90
64230;BME280;50547;49.498;0.092;2023-06-26T11:18:45;1019.67;;;21.19;65.56
64230;BME280;50547;49.498;0.092;2023-06-26T11:21:12;1019.53;;;21.45;63.79
64230;BME280;50547;49.498;0.092;2023-06-26T11:23:41;1019.53;;;21.25;64.68
64230;BME280;50547;49.498;0.092;2023-06-26T11:26:13;1019.63;;;21.41;64.71
64230;BME280;50547;49.498;0.092;2023-06-26T11:28:47;1019.55;;;21.65;63.60
64230;BME280;50547;49.498;0.092;2023-06-26T11:31:25;1019.65;;;21.78;63.16
64230;BME280;50547;49.498;0.092;2023-06-26T11:33:54;1019.67;;;21.64;63.19
64230;BME280;50547;49.498;0.092;2023-06-26T11:36:24;1019.67;;;21.68;64.08
64230;BME280;50547;49.498;0.092;2023-06-26T11:38:53;1019.73;;;21.43;64.58
64230;BME280;50547;49.498;0.092;2023-06-26T11:41:23;1019.75;;;20.96;65.76
64230;BME280;50547;49.498;0.092;2023-06-26T11:43:53;1019.81;;;21.29;64.32
64230;BME280;50547;49.498;0.092;2023-06-26T11:46:22;1019.79;;;21.12;64.69
64230;BME280;50547;49.498;0.092;2023-06-26T11:48:52;1019.79;;;21.11;63.39
64230;BME280;50547;49.498;0.092;2023-06-26T11:51:21;1019.77;;;21.30;63.60
64230;BME280;50547;49.498;0.092;2023-06-26T11:53:50;1019.71;;;21.16;63.05
64230;BME280;50547;49.498;0.092;2023-06-26T11:56:19;1019.83;;;21.11;62.69
64230;BME280;50547;49.498;0.092;2023-06-26T11:58:56;1019.92;;;21.13;62.49
64230;BME280;50547;49.498;0.092;2023-06-26T12:01:25;1019.83;;;21.29;61.73
64230;BME280;50547;49.498;0.092;2023-06-26T12:04:00;1019.77;;;21.25;62.89
64230;BME280;50547;49.498;0.092;2023-06-26T12:06:31;1019.81;;;21.37;60.81
64230;BME280;50547;49.498;0.092;2023-06-26T12:09:02;1019.71;;;21.00;59.96
64230;BME280;50547;49.498;0.092;2023-06-26T12:11:32;1019.75;;;20.80;62.57
64230;BME280;50547;49.498;0.092;2023-06-26T12:14:03;1019.69;;;20.68;62.74
64230;BME280;50547;49.498;0.092;2023-06-26T12:16:34;1019.79;;;21.01;61.86
64230;BME280;50547;49.498;0.092;2023-06-26T12:19:05;1019.77;;;20.92;60.36
64230;BME280;50547;49.498;0.092;2023-06-26T12:21:50;1019.79;;;20.94;63.18
64230;BME280;50547;49.498;0.092;2023-06-26T12:24:20;1019.81;;;20.83;62.54
64230;BME280;50547;49.498;0.092;2023-06-26T12:26:51;1019.81;;;20.66;62.64
64230;BME280;50547;49.498;0.092;2023-06-26T12:29:21;1019.79;;;20.88;61.89
64230;BME280;50547;49.498;0.092;2023-06-26T12:31:51;1019.79;;;20.90;61.99
64230;BME280;50547;49.498;0.092;2023-06-26T12:34:27;1019.79;;;20.89;61.93
64230;BME280;50547;49.498;0.092;2023-06-26T12:37:00;1019.71;;;21.10;59.39
64230;BME280;50547;49.498;0.092;2023-06-26T12:39:30;1019.81;;;21.13;61.84
64230;BME280;50547;49.498;0.092;2023-06-26T12:42:14;1019.67;;;21.41;60.70
64230;BME280;50547;49.498;0.092;2023-06-26T12:44:43;1019.65;;;21.46;60.92
64230;BME280;50547;49.498;0.092;2023-06-26T12:47:14;1019.59;;;21.61;60.27
64230;BME280;50547;49.498;0.092;2023-06-26T12:49:45;1019.55;;;21.81;58.37
64230;BME280;50547;49.498;0.092;2023-06-26T12:52:15;1019.59;;;21.98;59.81
64230;BME280;50547;49.498;0.092;2023-06-26T12:54:45;1019.51;;;22.30;59.43
64230;BME280;50547;49.498;0.092;2023-06-26T12:57:14;1019.61;;;22.26;59.51
64230;BME280;50547;49.498;0.092;2023-06-26T12:59:43;1019.63;;;22.26;59.68
64230;BME280;50547;49.498;0.092;2023-06-26T13:02:12;1019.47;;;22.02;60.74
64230;BME280;50547;49.498;0.092;2023-06-26T13:04:41;1019.57;;;21.83;61.83
64230;BME280;50547;49.498;0.092;2023-06-26T13:07:10;1019.61;;;21.95;60.42
64230;BME280;50547;49.498;0.092;2023-06-26T13:09:40;1019.67;;;21.69;63.11
64230;BME280;50547;49.498;0.092;2023-06-26T13:12:09;1019.61;;;21.26;65.45
64230;BME280;50547;49.498;0.092;2023-06-26T13:14:38;1019.63;;;21.50;63.57
64230;BME280;50547;49.498;0.092;2023-06-26T13:17:07;1019.67;;;21.72;62.63
64230;BME280;50547;49.498;0.092;2023-06-26T13:19:36;1019.75;;;21.65;61.81
64230;BME280;50547;49.498;0.092;2023-06-26T13:22:05;1019.73;;;21.35;63.51
64230;BME280;50547;49.498;0.092;2023-06-26T13:24:34;1019.69;;;21.49;63.62